sensor_id;sensor_type;location;lat;lon;timestamp;P1;durP1;ratioP1;P2;durP2;ratioP2
24761;SDS011;12865;51.934;10.330;2023-12-29T00:00:40;3.00;;;1.83;;
24761;SDS011;12865;51.934;10.330;2023-12-29T00:03:26;5.15;;;1.95;;
24761;SDS011;12865;51.934;10.330;2023-12-29T00:06:11;3.08;;;1.95;;
24761;SDS011;12865;51.934;10.330;2023-12-29T00:08:57;4.32;;;1.85;;
24761;SDS011;12865;51.934;10.330;2023-12-29T00:11:43;4.35;;;1.95;;
24761;SDS011;12865;51.934;10.330;2023-12-29T00:14:28;3.83;;;1.70;;
24761;SDS011;12865;51.934;10.330;2023-12-29T00:17:14;2.85;;;1.67;;
24761;SDS011;12865;51.934;10.330;2023-12-29T00:20:00;2.75;;;1.85;;
24761;SDS011;12865;51.934;10.330;2023-12-29T00:22:45;3.08;;;1.60;;
24761;SDS011;12865;51.934;10.330;2023-12-29T00:25:31;2.25;;;1.63;;
24761;SDS011;12865;51.934;10.330;2023-12-29T00:28:17;3.72;;;1.83;;
24761;SDS011;12865;51.934;10.330;2023-12-29T00:31:02;3.38;;;1.60;;
24761;SDS011;12865;51.934;10.330;2023-12-29T00:33:49;4.80;;;1.70;;
24761;SDS011;12865;51.934;10.330;2023-12-29T00:36:37;4.30;;;1.73;;
24761;SDS011;12865;51.934;10.330;2023-12-29T00:39:22;3.83;;;1.70;;
24761;SDS011;12865;51.934;10.330;2023-12-29T00:42:16;2.50;;;1.73;;
24761;SDS011;12865;51.934;10.330;2023-12-29T00:45:01;6.30;;;1.70;;
24761;SDS011;12865;51.934;10.330;2023-12-29T00:47:47;2.35;;;1.75;;
24761;SDS011;12865;51.934;10.330;2023-12-29T00:50:33;3.22;;;1.90;;
24761;SDS011;12865;51.934;10.330;2023-12-29T00:53:19;3.78;;;1.63;;
24761;SDS011;12865;51.934;10.330;2023-12-29T00:56:11;3.65;;;1.85;;
24761;SDS011;12865;51.934;10.330;2023-12-29T00:58:57;2.40;;;1.58;;
24761;SDS011;12865;51.934;10.330;2023-12-29T01:01:42;1.77;;;1.52;;
24761;SDS011;12865;51.934;10.330;2023-12-29T01:04:29;3.05;;;1.77;;
24761;SDS011;12865;51.934;10.330;2023-12-29T01:07:15;5.97;;;1.67;;
24761;SDS011;12865;51.934;10.330;2023-12-29T01:10:01;2.70;;;1.45;;
24761;SDS011;12865;51.934;10.330;2023-12-29T01:12:47;3.28;;;1.75;;
24761;SDS011;12865;51.934;10.330;2023-12-29T01:15:33;5.50;;;1.75;;
24761;SDS011;12865;51.934;10.330;2023-12-29T01:18:18;2.75;;;1.63;;
24761;SDS011;12865;51.934;10.330;2023-12-29T01:21:04;5.57;;;1.70;;
24761;SDS011;12865;51.934;10.330;2023-12-29T01:23:50;4.57;;;1.50;;
24761;SDS011;12865;51.934;10.330;2023-12-29T01:26:38;2.75;;;1.42;;
24761;SDS011;12865;51.934;10.330;2023-12-29T01:29:24;2.03;;;1.60;;
24761;SDS011;12865;51.934;10.330;2023-12-29T01:32:09;4.10;;;2.03;;
24761;SDS011;12865;51.934;10.330;2023-12-29T01:34:55;3.20;;;1.60;;
24761;SDS011;12865;51.934;10.330;2023-12-29T01:37:41;1.65;;;1.50;;
24761;SDS011;12865;51.934;10.330;2023-12-29T01:40:27;2.67;;;1.90;;
24761;SDS011;12865;51.934;10.330;2023-12-29T01:43:13;2.65;;;1.48;;
24761;SDS011;12865;51.934;10.330;2023-12-29T01:45:59;4.45;;;1.58;;
24761;SDS011;12865;51.934;10.330;2023-12-29T01:48:44;1.70;;;1.23;;
24761;SDS011;12865;51.934;10.330;2023-12-29T01:51:30;3.15;;;1.60;;
24761;SDS011;12865;51.934;10.330;2023-12-29T01:54:16;3.15;;;1.58;;
24761;SDS011;12865;51.934;10.330;2023-12-29T01:57:02;2.22;;;1.50;;
24761;SDS011;12865;51.934;10.330;2023-12-29T01:59:48;3.22;;;1.48;;
24761;SDS011;12865;51.934;10.330;2023-12-29T02:02:34;2.03;;;1.13;;
24761;SDS011;12865;51.934;10.330;2023-12-29T02:05:20;1.60;;;1.17;;
24761;SDS011;12865;51.934;10.330;2023-12-29T02:08:07;1.83;;;1.40;;
24761;SDS011;12865;51.934;10.330;2023-12-29T02:10:52;2.88;;;1.45;;
24761;SDS011;12865;51.934;10.330;2023-12-29T02:13:38;1.55;;;1.30;;
24761;SDS011;12865;51.934;10.330;2023-12-29T02:19:23;1.52;;;1.27;;
24761;SDS011;12865;51.934;10.330;2023-12-29T02:22:19;2.47;;;1.05;;
24761;SDS011;12865;51.934;10.330;2023-12-29T02:25:05;2.03;;;1.30;;
24761;SDS011;12865;51.934;10.330;2023-12-29T02:27:52;2.67;;;1.20;;
24761;SDS011;12865;51.934;10.330;2023-12-29T02:31:17;1.42;;;1.27;;
24761;SDS011;12865;51.934;10.330;2023-12-29T02:34:00;2.88;;;1.45;;
24761;SDS011;12865;51.934;10.330;2023-12-29T02:36:51;3.90;;;1.70;;
24761;SDS011;12865;51.934;10.330;2023-12-29T02:39:37;1.58;;;1.33;;
24761;SDS011;12865;51.934;10.330;2023-12-29T02:42:24;2.60;;;1.60;;
24761;SDS011;12865;51.934;10.330;2023-12-29T02:45:09;2.33;;;1.08;;
24761;SDS011;12865;51.934;10.330;2023-12-29T02:47:55;1.77;;;1.50;;
24761;SDS011;12865;51.934;10.330;2023-12-29T02:50:41;3.20;;;1.23;;
24761;SDS011;12865;51.934;10.330;2023-12-29T02:53:27;1.63;;;1.40;;
24761;SDS011;12865;51.934;10.330;2023-12-29T02:56:13;2.83;;;1.30;;
24761;SDS011;12865;51.934;10.330;2023-12-29T02:58:58;1.67;;;1.13;;
24761;SDS011;12865;51.934;10.330;2023-12-29T03:01:44;4.45;;;1.20;;
24761;SDS011;12865;51.934;10.330;2023-12-29T03:04:30;2.70;;;1.42;;
24761;SDS011;12865;51.934;10.330;2023-12-29T03:07:15;1.70;;;1.15;;
24761;SDS011;12865;51.934;10.330;2023-12-29T03:10:01;2.17;;;1.00;;
24761;SDS011;12865;51.934;10.330;2023-12-29T03:12:47;1.48;;;1.08;;
24761;SDS011;12865;51.934;10.330;2023-12-29T03:15:33;2.47;;;1.30;;
24761;SDS011;12865;51.934;10.330;2023-12-29T03:18:18;1.60;;;1.40;;
24761;SDS011;12865;51.934;10.330;2023-12-29T03:21:04;3.88;;;1.35;;
24761;SDS011;12865;51.934;10.330;2023-12-29T03:23:50;2.08;;;1.30;;
24761;SDS011;12865;51.934;10.330;2023-12-29T03:26:36;2.65;;;1.40;;
24761;SDS011;12865;51.934;10.330;2023-12-29T03:29:21;2.60;;;1.40;;
24761;SDS011;12865;51.934;10.330;2023-12-29T03:32:07;4.78;;;1.35;;
24761;SDS011;12865;51.934;10.330;2023-12-29T03:34:53;1.58;;;1.10;;
24761;SDS011;12865;51.934;10.330;2023-12-29T03:37:38;2.60;;;1.13;;
24761;SDS011;12865;51.934;10.330;2023-12-29T03:40:24;1.48;;;1.23;;
24761;SDS011;12865;51.934;10.330;2023-12-29T03:43:09;1.65;;;1.45;;
24761;SDS011;12865;51.934;10.330;2023-12-29T03:45:55;1.48;;;1.38;;
24761;SDS011;12865;51.934;10.330;2023-12-29T03:48:41;1.35;;;1.25;;
24761;SDS011;12865;51.934;10.330;2023-12-29T03:51:26;3.63;;;1.48;;
24761;SDS011;12865;51.934;10.330;2023-12-29T03:54:12;2.40;;;1.30;;
24761;SDS011;12865;51.934;10.330;2023-12-29T03:56:58;2.22;;;1.38;;
24761;SDS011;12865;51.934;10.330;2023-12-29T03:59:43;2.55;;;1.40;;
24761;SDS011;12865;51.934;10.330;2023-12-29T04:02:29;2.80;;;1.20;;
24761;SDS011;12865;51.934;10.330;2023-12-29T04:05:15;2.33;;;1.60;;
24761;SDS011;12865;51.934;10.330;2023-12-29T04:08:00;2.30;;;1.45;;
24761;SDS011;12865;51.934;10.330;2023-12-29T04:10:46;4.13;;;1.42;;
24761;SDS011;12865;51.934;10.330;2023-12-29T04:13:32;3.83;;;1.80;;
24761;SDS011;12865;51.934;10.330;2023-12-29T04:16:17;3.92;;;1.65;;
24761;SDS011;12865;51.934;10.330;2023-12-29T04:19:03;4.93;;;1.60;;
24761;SDS011;12865;51.934;10.330;2023-12-29T04:21:49;1.40;;;1.30;;
24761;SDS011;12865;51.934;10.330;2023-12-29T04:24:37;4.00;;;1.50;;
24761;SDS011;12865;51.934;10.330;2023-12-29T04:27:23;2.30;;;1.42;;
24761;SDS011;12865;51.934;10.330;2023-12-29T04:30:09;2.70;;;1.45;;
24761;SDS011;12865;51.934;10.330;2023-12-29T04:32:55;2.60;;;1.60;;
24761;SDS011;12865;51.934;10.330;2023-12-29T04:35:41;2.40;;;1.70;;
24761;SDS011;12865;51.934;10.330;2023-12-29T04:38:26;1.50;;;1.40;;
24761;SDS011;12865;51.934;10.330;2023-12-29T04:41:12;3.67;;;1.90;;
24761;SDS011;12865;51.934;10.330;2023-12-29T04:43:58;4.63;;;1.70;;
24761;SDS011;12865;51.934;10.330;2023-12-29T04:46:44;3.17;;;1.60;;
24761;SDS011;12865;51.934;10.330;2023-12-29T04:49:30;2.85;;;1.48;;
24761;SDS011;12865;51.934;10.330;2023-12-29T04:52:16;7.57;;;1.58;;
24761;SDS011;12865;51.934;10.330;2023-12-29T04:55:01;3.05;;;1.58;;
24761;SDS011;12865;51.934;10.330;2023-12-29T04:57:47;4.85;;;1.50;;
24761;SDS011;12865;51.934;10.330;2023-12-29T05:00:33;8.23;;;2.28;;
24761;SDS011;12865;51.934;10.330;2023-12-29T05:03:18;2.97;;;1.83;;
24761;SDS011;12865;51.934;10.330;2023-12-29T05:06:04;2.92;;;1.77;;
24761;SDS011;12865;51.934;10.330;2023-12-29T05:08:50;2.85;;;1.88;;
24761;SDS011;12865;51.934;10.330;2023-12-29T05:11:35;2.10;;;1.80;;
24761;SDS011;12865;51.934;10.330;2023-12-29T05:14:21;6.38;;;2.28;;
24761;SDS011;12865;51.934;10.330;2023-12-29T05:17:07;2.72;;;1.80;;
24761;SDS011;12865;51.934;10.330;2023-12-29T05:19:53;2.83;;;1.92;;
24761;SDS011;12865;51.934;10.330;2023-12-29T05:22:39;4.50;;;1.98;;
24761;SDS011;12865;51.934;10.330;2023-12-29T05:25:25;2.78;;;1.90;;
24761;SDS011;12865;51.934;10.330;2023-12-29T05:28:11;3.78;;;1.90;;
24761;SDS011;12865;51.934;10.330;2023-12-29T05:30:57;3.35;;;2.10;;
24761;SDS011;12865;51.934;10.330;2023-12-29T05:33:44;3.67;;;2.03;;
24761;SDS011;12865;51.934;10.330;2023-12-29T05:36:30;5.55;;;1.98;;
24761;SDS011;12865;51.934;10.330;2023-12-29T05:39:22;6.15;;;1.90;;
24761;SDS011;12865;51.934;10.330;2023-12-29T05:42:07;3.28;;;1.80;;
24761;SDS011;12865;51.934;10.330;2023-12-29T05:44:53;3.15;;;1.92;;
24761;SDS011;12865;51.934;10.330;2023-12-29T05:47:39;3.13;;;1.75;;
24761;SDS011;12865;51.934;10.330;2023-12-29T05:50:25;3.30;;;2.00;;
24761;SDS011;12865;51.934;10.330;2023-12-29T05:53:10;4.40;;;1.73;;
24761;SDS011;12865;51.934;10.330;2023-12-29T05:55:56;1.92;;;1.70;;
24761;SDS011;12865;51.934;10.330;2023-12-29T05:58:42;2.90;;;1.92;;
24761;SDS011;12865;51.934;10.330;2023-12-29T06:01:29;3.20;;;2.08;;
24761;SDS011;12865;51.934;10.330;2023-12-29T06:04:15;3.53;;;1.98;;
24761;SDS011;12865;51.934;10.330;2023-12-29T06:07:01;2.85;;;1.80;;
24761;SDS011;12865;51.934;10.330;2023-12-29T06:09:46;4.03;;;2.08;;
24761;SDS011;12865;51.934;10.330;2023-12-29T06:12:32;2.28;;;1.77;;
24761;SDS011;12865;51.934;10.330;2023-12-29T06:15:18;3.58;;;1.40;;
24761;SDS011;12865;51.934;10.330;2023-12-29T06:18:04;2.00;;;1.80;;
24761;SDS011;12865;51.934;10.330;2023-12-29T06:20:50;3.75;;;1.70;;
24761;SDS011;12865;51.934;10.330;2023-12-29T06:23:35;4.63;;;1.77;;
24761;SDS011;12865;51.934;10.330;2023-12-29T06:26:21;5.00;;;2.50;;
24761;SDS011;12865;51.934;10.330;2023-12-29T06:29:08;5.35;;;2.10;;
24761;SDS011;12865;51.934;10.330;2023-12-29T06:31:54;4.75;;;1.75;;
24761;SDS011;12865;51.934;10.330;2023-12-29T06:34:40;7.65;;;2.08;;
24761;SDS011;12865;51.934;10.330;2023-12-29T06:37:26;5.40;;;1.95;;
24761;SDS011;12865;51.934;10.330;2023-12-29T06:40:12;6.25;;;2.25;;
24761;SDS011;12865;51.934;10.330;2023-12-29T06:42:57;2.88;;;1.70;;
24761;SDS011;12865;51.934;10.330;2023-12-29T06:45:43;6.53;;;2.00;;
24761;SDS011;12865;51.934;10.330;2023-12-29T06:48:29;6.25;;;1.88;;
24761;SDS011;12865;51.934;10.330;2023-12-29T06:51:17;5.93;;;2.20;;
24761;SDS011;12865;51.934;10.330;2023-12-29T06:54:04;4.18;;;1.95;;
24761;SDS011;12865;51.934;10.330;2023-12-29T06:56:49;4.43;;;2.05;;
24761;SDS011;12865;51.934;10.330;2023-12-29T06:59:35;5.90;;;2.00;;
24761;SDS011;12865;51.934;10.330;2023-12-29T07:02:21;2.40;;;1.60;;
24761;SDS011;12865;51.934;10.330;2023-12-29T07:05:06;4.32;;;1.88;;
24761;SDS011;12865;51.934;10.330;2023-12-29T07:07:52;3.30;;;1.40;;
24761;SDS011;12865;51.934;10.330;2023-12-29T07:10:38;4.20;;;1.63;;
24761;SDS011;12865;51.934;10.330;2023-12-29T07:13:23;5.60;;;1.90;;
24761;SDS011;12865;51.934;10.330;2023-12-29T07:16:09;5.55;;;1.70;;
24761;SDS011;12865;51.934;10.330;2023-12-29T07:18:55;5.63;;;2.17;;
24761;SDS011;12865;51.934;10.330;2023-12-29T07:21:41;3.00;;;1.60;;
24761;SDS011;12865;51.934;10.330;2023-12-29T07:24:26;5.05;;;2.03;;
24761;SDS011;12865;51.934;10.330;2023-12-29T07:27:12;4.88;;;1.90;;
24761;SDS011;12865;51.934;10.330;2023-12-29T07:29:58;5.97;;;1.90;;
24761;SDS011;12865;51.934;10.330;2023-12-29T07:32:44;3.75;;;1.60;;
24761;SDS011;12865;51.934;10.330;2023-12-29T07:35:29;3.83;;;1.60;;
24761;SDS011;12865;51.934;10.330;2023-12-29T07:38:15;5.47;;;1.50;;
24761;SDS011;12865;51.934;10.330;2023-12-29T07:41:01;4.10;;;1.77;;
24761;SDS011;12865;51.934;10.330;2023-12-29T07:43:47;3.78;;;1.58;;
24761;SDS011;12865;51.934;10.330;2023-12-29T07:46:32;5.22;;;1.83;;
24761;SDS011;12865;51.934;10.330;2023-12-29T07:49:18;4.95;;;1.70;;
24761;SDS011;12865;51.934;10.330;2023-12-29T07:52:04;4.32;;;1.50;;
24761;SDS011;12865;51.934;10.330;2023-12-29T07:54:50;4.20;;;1.55;;
24761;SDS011;12865;51.934;10.330;2023-12-29T07:57:35;3.10;;;1.70;;
24761;SDS011;12865;51.934;10.330;2023-12-29T08:00:21;4.55;;;1.30;;
24761;SDS011;12865;51.934;10.330;2023-12-29T08:03:08;6.38;;;1.30;;
24761;SDS011;12865;51.934;10.330;2023-12-29T08:05:54;5.55;;;1.70;;
24761;SDS011;12865;51.934;10.330;2023-12-29T08:08:39;5.68;;;1.48;;
24761;SDS011;12865;51.934;10.330;2023-12-29T08:11:25;6.10;;;1.40;;
24761;SDS011;12865;51.934;10.330;2023-12-29T08:14:11;5.32;;;1.75;;
24761;SDS011;12865;51.934;10.330;2023-12-29T08:16:57;4.25;;;1.20;;
24761;SDS011;12865;51.934;10.330;2023-12-29T08:19:43;4.35;;;1.30;;
24761;SDS011;12865;51.934;10.330;2023-12-29T08:22:29;7.22;;;1.60;;
24761;SDS011;12865;51.934;10.330;2023-12-29T08:25:15;3.78;;;1.27;;
24761;SDS011;12865;51.934;10.330;2023-12-29T08:28:01;4.53;;;1.25;;
24761;SDS011;12865;51.934;10.330;2023-12-29T08:30:46;5.28;;;1.20;;
24761;SDS011;12865;51.934;10.330;2023-12-29T08:33:32;8.00;;;2.58;;
24761;SDS011;12865;51.934;10.330;2023-12-29T08:36:18;2.78;;;1.23;;
24761;SDS011;12865;51.934;10.330;2023-12-29T08:39:05;3.75;;;1.30;;
24761;SDS011;12865;51.934;10.330;2023-12-29T08:41:51;5.22;;;1.60;;
24761;SDS011;12865;51.934;10.330;2023-12-29T08:44:36;5.03;;;1.20;;
24761;SDS011;12865;51.934;10.330;2023-12-29T08:47:22;3.25;;;1.30;;
24761;SDS011;12865;51.934;10.330;2023-12-29T08:50:09;2.63;;;1.33;;
24761;SDS011;12865;51.934;10.330;2023-12-29T08:52:54;2.90;;;1.02;;
24761;SDS011;12865;51.934;10.330;2023-12-29T08:55:40;4.00;;;1.30;;
24761;SDS011;12865;51.934;10.330;2023-12-29T08:58:26;3.25;;;1.30;;
24761;SDS011;12865;51.934;10.330;2023-12-29T09:01:12;7.00;;;1.40;;
24761;SDS011;12865;51.934;10.330;2023-12-29T09:03:57;2.85;;;1.20;;
24761;SDS011;12865;51.934;10.330;2023-12-29T09:06:43;4.28;;;1.35;;
24761;SDS011;12865;51.934;10.330;2023-12-29T09:09:29;3.50;;;1.27;;
24761;SDS011;12865;51.934;10.330;2023-12-29T09:12:14;2.70;;;1.05;;
24761;SDS011;12865;51.934;10.330;2023-12-29T09:15:00;1.83;;;1.23;;
24761;SDS011;12865;51.934;10.330;2023-12-29T09:17:46;4.10;;;1.25;;
24761;SDS011;12865;51.934;10.330;2023-12-29T09:20:31;3.60;;;1.20;;
24761;SDS011;12865;51.934;10.330;2023-12-29T09:23:17;4.55;;;1.42;;
24761;SDS011;12865;51.934;10.330;2023-12-29T09:26:03;3.63;;;1.60;;
24761;SDS011;12865;51.934;10.330;2023-12-29T09:28:49;4.07;;;1.50;;
24761;SDS011;12865;51.934;10.330;2023-12-29T09:31:34;5.32;;;1.20;;
24761;SDS011;12865;51.934;10.330;2023-12-29T09:34:21;6.97;;;1.30;;
24761;SDS011;12865;51.934;10.330;2023-12-29T09:37:06;6.70;;;1.20;;
24761;SDS011;12865;51.934;10.330;2023-12-29T09:39:52;3.40;;;1.10;;
24761;SDS011;12865;51.934;10.330;2023-12-29T09:42:38;2.90;;;1.10;;
24761;SDS011;12865;51.934;10.330;2023-12-29T09:45:24;5.63;;;1.38;;
24761;SDS011;12865;51.934;10.330;2023-12-29T09:48:11;6.75;;;1.50;;
24761;SDS011;12865;51.934;10.330;2023-12-29T09:50:58;6.38;;;1.27;;
24761;SDS011;12865;51.934;10.330;2023-12-29T09:53:44;4.38;;;1.30;;
24761;SDS011;12865;51.934;10.330;2023-12-29T09:56:30;5.20;;;1.50;;
24761;SDS011;12865;51.934;10.330;2023-12-29T09:59:16;5.38;;;1.70;;
24761;SDS011;12865;51.934;10.330;2023-12-29T10:02:03;4.32;;;1.48;;
24761;SDS011;12865;51.934;10.330;2023-12-29T10:04:50;2.80;;;1.30;;
24761;SDS011;12865;51.934;10.330;2023-12-29T10:07:36;5.88;;;2.03;;
24761;SDS011;12865;51.934;10.330;2023-12-29T10:10:23;5.47;;;1.30;;
24761;SDS011;12865;51.934;10.330;2023-12-29T10:13:10;3.97;;;1.55;;
24761;SDS011;12865;51.934;10.330;2023-12-29T10:16:43;4.88;;;1.75;;
24761;SDS011;12865;51.934;10.330;2023-12-29T10:25:40;5.15;;;1.70;;
24761;SDS011;12865;51.934;10.330;2023-12-29T10:28:26;4.63;;;1.63;;
24761;SDS011;12865;51.934;10.330;2023-12-29T10:31:13;5.40;;;1.60;;
24761;SDS011;12865;51.934;10.330;2023-12-29T10:37:02;7.22;;;1.92;;
24761;SDS011;12865;51.934;10.330;2023-12-29T10:39:55;1.75;;;1.35;;
24761;SDS011;12865;51.934;10.330;2023-12-29T10:42:54;4.40;;;1.60;;
24761;SDS011;12865;51.934;10.330;2023-12-29T10:45:40;4.00;;;1.67;;
24761;SDS011;12865;51.934;10.330;2023-12-29T10:48:26;5.88;;;1.67;;
24761;SDS011;12865;51.934;10.330;2023-12-29T10:51:11;3.80;;;1.48;;
24761;SDS011;12865;51.934;10.330;2023-12-29T10:53:57;7.25;;;2.90;;
24761;SDS011;12865;51.934;10.330;2023-12-29T10:56:43;3.17;;;1.33;;
24761;SDS011;12865;51.934;10.330;2023-12-29T10:59:29;4.30;;;1.98;;
24761;SDS011;12865;51.934;10.330;2023-12-29T11:02:14;3.17;;;1.35;;
24761;SDS011;12865;51.934;10.330;2023-12-29T11:05:06;3.17;;;1.35;;
24761;SDS011;12865;51.934;10.330;2023-12-29T11:07:54;2.78;;;1.08;;
24761;SDS011;12865;51.934;10.330;2023-12-29T11:10:40;3.10;;;1.33;;
24761;SDS011;12865;51.934;10.330;2023-12-29T11:13:26;2.38;;;1.20;;
24761;SDS011;12865;51.934;10.330;2023-12-29T11:16:16;1.60;;;1.30;;
24761;SDS011;12865;51.934;10.330;2023-12-29T11:19:06;2.13;;;1.00;;
24761;SDS011;12865;51.934;10.330;2023-12-29T11:21:54;1.65;;;0.90;;
24761;SDS011;12865;51.934;10.330;2023-12-29T11:24:41;1.33;;;0.90;;
24761;SDS011;12865;51.934;10.330;2023-12-29T11:27:27;2.45;;;1.10;;
24761;SDS011;12865;51.934;10.330;2023-12-29T11:30:16;4.65;;;1.08;;
24761;SDS011;12865;51.934;10.330;2023-12-29T11:33:03;1.23;;;1.02;;
24761;SDS011;12865;51.934;10.330;2023-12-29T11:35:55;3.42;;;0.95;;
24761;SDS011;12865;51.934;10.330;2023-12-29T11:42:11;2.78;;;0.98;;
24761;SDS011;12865;51.934;10.330;2023-12-29T11:45:23;2.05;;;0.88;;
24761;SDS011;12865;51.934;10.330;2023-12-29T11:48:09;1.33;;;0.70;;
24761;SDS011;12865;51.934;10.330;2023-12-29T11:50:56;1.33;;;0.93;;
24761;SDS011;12865;51.934;10.330;2023-12-29T11:53:42;2.25;;;1.02;;
24761;SDS011;12865;51.934;10.330;2023-12-29T11:56:37;2.28;;;1.80;;
24761;SDS011;12865;51.934;10.330;2023-12-29T11:59:26;1.48;;;0.88;;
24761;SDS011;12865;51.934;10.330;2023-12-29T12:02:26;0.77;;;0.70;;
24761;SDS011;12865;51.934;10.330;2023-12-29T12:05:12;2.88;;;1.15;;
24761;SDS011;12865;51.934;10.330;2023-12-29T12:08:34;2.30;;;1.25;;
24761;SDS011;12865;51.934;10.330;2023-12-29T12:17:33;1.50;;;0.80;;
24761;SDS011;12865;51.934;10.330;2023-12-29T12:20:19;1.65;;;0.73;;
24761;SDS011;12865;51.934;10.330;2023-12-29T12:23:16;1.23;;;1.13;;
24761;SDS011;12865;51.934;10.330;2023-12-29T12:26:03;1.83;;;0.75;;
24761;SDS011;12865;51.934;10.330;2023-12-29T12:28:54;1.27;;;0.82;;
24761;SDS011;12865;51.934;10.330;2023-12-29T12:32:01;1.65;;;0.75;;
24761;SDS011;12865;51.934;10.330;2023-12-29T12:34:46;2.15;;;0.73;;
24761;SDS011;12865;51.934;10.330;2023-12-29T12:37:31;0.70;;;0.70;;
24761;SDS011;12865;51.934;10.330;2023-12-29T12:40:24;0.60;;;0.60;;
24761;SDS011;12865;51.934;10.330;2023-12-29T12:43:14;1.38;;;0.50;;
24761;SDS011;12865;51.934;10.330;2023-12-29T12:46:03;0.75;;;0.70;;
24761;SDS011;12865;51.934;10.330;2023-12-29T12:48:55;1.42;;;0.50;;
24761;SDS011;12865;51.934;10.330;2023-12-29T12:51:40;0.50;;;0.50;;
24761;SDS011;12865;51.934;10.330;2023-12-29T12:54:26;0.70;;;0.70;;
24761;SDS011;12865;51.934;10.330;2023-12-29T12:57:13;0.52;;;0.52;;
24761;SDS011;12865;51.934;10.330;2023-12-29T12:59:59;0.70;;;0.70;;
24761;SDS011;12865;51.934;10.330;2023-12-29T13:02:46;1.42;;;1.00;;
24761;SDS011;12865;51.934;10.330;2023-12-29T13:05:31;1.50;;;1.00;;
24761;SDS011;12865;51.934;10.330;2023-12-29T13:08:17;0.73;;;0.60;;
24761;SDS011;12865;51.934;10.330;2023-12-29T13:11:03;0.90;;;0.50;;
24761;SDS011;12865;51.934;10.330;2023-12-29T13:13:49;0.63;;;0.60;;
24761;SDS011;12865;51.934;10.330;2023-12-29T13:16:36;0.50;;;0.50;;
24761;SDS011;12865;51.934;10.330;2023-12-29T13:19:24;0.50;;;0.50;;
24761;SDS011;12865;51.934;10.330;2023-12-29T13:22:10;0.40;;;0.40;;
24761;SDS011;12865;51.934;10.330;2023-12-29T13:24:56;0.70;;;0.43;;
24761;SDS011;12865;51.934;10.330;2023-12-29T13:27:42;1.52;;;0.95;;
24761;SDS011;12865;51.934;10.330;2023-12-29T13:30:28;0.50;;;0.50;;
24761;SDS011;12865;51.934;10.330;2023-12-29T13:33:17;2.17;;;0.38;;
24761;SDS011;12865;51.934;10.330;2023-12-29T13:36:22;0.50;;;0.50;;
24761;SDS011;12865;51.934;10.330;2023-12-29T13:42:14;0.50;;;0.50;;
24761;SDS011;12865;51.934;10.330;2023-12-29T13:45:02;1.15;;;0.50;;
24761;SDS011;12865;51.934;10.330;2023-12-29T13:47:51;1.55;;;0.55;;
24761;SDS011;12865;51.934;10.330;2023-12-29T13:50:39;0.53;;;0.53;;
24761;SDS011;12865;51.934;10.330;2023-12-29T13:53:26;0.68;;;0.57;;
24761;SDS011;12865;51.934;10.330;2023-12-29T13:56:12;2.45;;;0.90;;
24761;SDS011;12865;51.934;10.330;2023-12-29T13:58:57;0.60;;;0.60;;
24761;SDS011;12865;51.934;10.330;2023-12-29T14:01:50;0.98;;;0.60;;
24761;SDS011;12865;51.934;10.330;2023-12-29T14:04:35;0.60;;;0.60;;
24761;SDS011;12865;51.934;10.330;2023-12-29T14:07:23;0.57;;;0.47;;
24761;SDS011;12865;51.934;10.330;2023-12-29T14:10:10;0.60;;;0.57;;
24761;SDS011;12865;51.934;10.330;2023-12-29T14:13:03;1.80;;;1.00;;
24761;SDS011;12865;51.934;10.330;2023-12-29T14:15:50;0.80;;;0.60;;
24761;SDS011;12865;51.934;10.330;2023-12-29T14:21:28;0.73;;;0.73;;
24761;SDS011;12865;51.934;10.330;2023-12-29T14:24:16;1.10;;;1.10;;
24761;SDS011;12865;51.934;10.330;2023-12-29T14:27:02;3.03;;;0.70;;
24761;SDS011;12865;51.934;10.330;2023-12-29T14:29:48;1.70;;;0.70;;
24761;SDS011;12865;51.934;10.330;2023-12-29T14:32:33;0.90;;;0.80;;
24761;SDS011;12865;51.934;10.330;2023-12-29T14:35:19;1.77;;;1.25;;
24761;SDS011;12865;51.934;10.330;2023-12-29T14:38:05;0.70;;;0.70;;
24761;SDS011;12865;51.934;10.330;2023-12-29T14:40:50;2.63;;;1.52;;
24761;SDS011;12865;51.934;10.330;2023-12-29T14:43:36;1.75;;;0.80;;
24761;SDS011;12865;51.934;10.330;2023-12-29T14:46:22;1.63;;;1.10;;
24761;SDS011;12865;51.934;10.330;2023-12-29T14:49:08;14.57;;;4.70;;
24761;SDS011;12865;51.934;10.330;2023-12-29T14:51:54;6.07;;;3.17;;
24761;SDS011;12865;51.934;10.330;2023-12-29T14:54:42;7.22;;;4.60;;
24761;SDS011;12865;51.934;10.330;2023-12-29T14:57:27;1.67;;;1.52;;
24761;SDS011;12865;51.934;10.330;2023-12-29T15:00:13;1.35;;;1.17;;
24761;SDS011;12865;51.934;10.330;2023-12-29T15:02:59;1.30;;;0.95;;
24761;SDS011;12865;51.934;10.330;2023-12-29T15:05:45;5.40;;;4.50;;
24761;SDS011;12865;51.934;10.330;2023-12-29T15:08:31;5.38;;;1.73;;
24761;SDS011;12865;51.934;10.330;2023-12-29T15:11:20;2.00;;;1.10;;
24761;SDS011;12865;51.934;10.330;2023-12-29T15:14:05;1.05;;;0.60;;
24761;SDS011;12865;51.934;10.330;2023-12-29T15:16:51;1.13;;;0.65;;
24761;SDS011;12865;51.934;10.330;2023-12-29T15:19:38;1.73;;;1.63;;
24761;SDS011;12865;51.934;10.330;2023-12-29T15:22:23;3.95;;;1.20;;
24761;SDS011;12865;51.934;10.330;2023-12-29T15:25:11;1.67;;;1.00;;
24761;SDS011;12865;51.934;10.330;2023-12-29T15:27:57;1.00;;;0.88;;
24761;SDS011;12865;51.934;10.330;2023-12-29T15:30:43;3.13;;;0.70;;
24761;SDS011;12865;51.934;10.330;2023-12-29T15:33:29;0.82;;;0.50;;
24761;SDS011;12865;51.934;10.330;2023-12-29T15:36:15;0.70;;;0.70;;
24761;SDS011;12865;51.934;10.330;2023-12-29T15:39:05;1.10;;;0.50;;
24761;SDS011;12865;51.934;10.330;2023-12-29T15:41:51;0.77;;;0.50;;
24761;SDS011;12865;51.934;10.330;2023-12-29T15:44:37;0.65;;;0.50;;
24761;SDS011;12865;51.934;10.330;2023-12-29T15:47:22;0.60;;;0.40;;
24761;SDS011;12865;51.934;10.330;2023-12-29T15:50:08;0.50;;;0.50;;
24761;SDS011;12865;51.934;10.330;2023-12-29T15:52:54;0.85;;;0.50;;
24761;SDS011;12865;51.934;10.330;2023-12-29T15:55:39;0.77;;;0.55;;
24761;SDS011;12865;51.934;10.330;2023-12-29T15:58:25;1.33;;;0.52;;
24761;SDS011;12865;51.934;10.330;2023-12-29T16:01:11;0.60;;;0.60;;
24761;SDS011;12865;51.934;10.330;2023-12-29T16:03:56;2.95;;;1.02;;
24761;SDS011;12865;51.934;10.330;2023-12-29T16:06:43;1.25;;;1.08;;
24761;SDS011;12865;51.934;10.330;2023-12-29T16:09:29;0.50;;;0.50;;
24761;SDS011;12865;51.934;10.330;2023-12-29T16:12:14;1.90;;;0.80;;
24761;SDS011;12865;51.934;10.330;2023-12-29T16:15:00;3.10;;;0.75;;
24761;SDS011;12865;51.934;10.330;2023-12-29T16:17:46;2.22;;;0.90;;
24761;SDS011;12865;51.934;10.330;2023-12-29T16:20:31;1.15;;;0.90;;
24761;SDS011;12865;51.934;10.330;2023-12-29T16:23:17;0.90;;;0.90;;
24761;SDS011;12865;51.934;10.330;2023-12-29T16:26:06;1.13;;;1.13;;
24761;SDS011;12865;51.934;10.330;2023-12-29T16:28:53;0.80;;;0.80;;
24761;SDS011;12865;51.934;10.330;2023-12-29T16:31:38;2.17;;;0.70;;
24761;SDS011;12865;51.934;10.330;2023-12-29T16:34:24;0.60;;;0.60;;
24761;SDS011;12865;51.934;10.330;2023-12-29T16:37:09;0.70;;;0.70;;
24761;SDS011;12865;51.934;10.330;2023-12-29T16:39:56;2.33;;;0.90;;
24761;SDS011;12865;51.934;10.330;2023-12-29T16:42:42;1.25;;;1.15;;
24761;SDS011;12865;51.934;10.330;2023-12-29T16:45:27;1.42;;;1.08;;
24761;SDS011;12865;51.934;10.330;2023-12-29T16:48:13;1.52;;;1.00;;
24761;SDS011;12865;51.934;10.330;2023-12-29T16:50:59;2.85;;;1.17;;
24761;SDS011;12865;51.934;10.330;2023-12-29T16:53:45;0.55;;;0.55;;
24761;SDS011;12865;51.934;10.330;2023-12-29T16:56:31;0.90;;;0.90;;